大阪市立科学館学芸員 江越航のホームページ  大阪市立科学館 学芸員

 江越 航のホームページ

大阪市立科学館 屋上ライブカメラ

現在の科学館上空の様子
ライブカメラ

環境データ

過去24時間の環境変化
環境トレンド
凡例
過去1週間の環境変化
気象データ

数値計算データ(NOAA)

海面更正気圧 地表付近の風
海面更正気圧 地表付近の風
850hPa面の温度 850hPa面の相対湿度
850hPa面の温度 850hPa面の相対湿度

定時航空実況気象通報式(METAR)

大阪空港 定時航空実況気象通報式
09日09時00分(JST)
RJOO 090000Z 22006KT 150V270 9999 FEW020 BKN/// 31/26 Q1011 RMK 1CU020 A2986
CU 積雲
雲量 :1/8
雲底高度 :2000 feet

関西国際空港 定時航空実況気象通報式
09日09時34分(JST)
RJBB 090034Z 22009KT 200V260 9999 FEW030 BKN/// 32/26 Q1011 RMK 1CU030 A2987
CU 積雲
雲量 :1/8
雲底高度 :3000 feet

気象庁XML 受信データ

大阪府府県天気予報
2020-08-09T11:00:00+09:00
今日 晴れ 時々 くもり 所により 夜 雨

府県天気概況
2020-08-09T10:33:00+09:00
 大阪府は、高気圧に覆われておおむね晴れています。

 9日の大阪府は、高気圧に覆われておおむね晴れますが、湿った空気の影響で夜は雨の降る所があるでしょう。
 9日は高温が予想され、熱中症の危険が特に高くなる見込みです。暑さを避け、水分をこまめに補給するなど、十分な対策をとってください。

 10日の大阪府は、湿った空気の影響で曇り、雨や雷雨となる所があるでしょう。

【近畿地方】
 近畿地方は、高気圧に覆われて北部や中部ではおおむね晴れていますが、南部では湿った空気の影響によりおおむね曇っています。

 9日の近畿地方は、北部や中部では高気圧に覆われておおむね晴れますが、南部では湿った空気の影響でおおむね曇る見込みです。雨や雷雨となる所があるでしょう。

 10日の近畿地方は、湿った空気の影響でおおむね曇り、南部では断続的に雨が降り雷を伴う所がある見込みです。中部や南部でも雨や雷雨の所があるでしょう。